Time;durP1;ratioP1;P1;durP2;ratioP2;P2;SDS_P1;SDS_P2;PMS_P1;PMS_P2;Temp;Humidity;BMP_temperature;BMP_pressure;BME280_temperature;BME280_humidity;BME280_pressure;Samples;Min_cycle;Max_cycle;Signal;HPM_P1;HPM_P2
2023/10/17 00:02:27;;;;;;;0.50;0.40;;;11.80;75.60;;;;;;4969551;28;20226;-82
2023/10/17 00:04:53;;;;;;;1.23;0.60;;;11.80;75.80;;;;;;4969662;28;20094;-82
2023/10/17 00:07:20;;;;;;;1.85;0.57;;;11.90;75.80;;;;;;4978709;28;20518;-82
2023/10/17 00:09:48;;;;;;;1.75;0.57;;;11.80;75.70;;;;;;4968984;28;21438;-81
2023/10/17 00:14:45;;;;;;;2.63;0.70;;;11.80;75.50;;;;;;4969828;28;20065;-82
2023/10/17 00:17:15;;;;;;;2.92;0.77;;;11.80;75.30;;;;;;4984053;28;20556;-81
2023/10/17 00:19:42;;;;;;;3.53;1.13;;;11.80;75.40;;;;;;4983417;28;20039;-83
2023/10/17 00:22:24;;;;;;;1.73;1.10;;;11.80;75.90;;;;;;4980434;28;20060;-80
2023/10/17 00:25:09;;;;;;;1.80;0.70;;;11.80;76.40;;;;;;5007174;28;20057;-81
2023/10/17 00:27:35;;;;;;;1.02;0.70;;;11.80;76.10;;;;;;5006426;28;20038;-80
2023/10/17 00:30:01;;;;;;;1.73;0.77;;;11.80;75.80;;;;;;4990488;28;20122;-80
2023/10/17 00:32:31;;;;;;;2.47;0.90;;;11.80;75.80;;;;;;5005628;28;20053;-79
2023/10/17 00:34:58;;;;;;;1.15;0.70;;;11.80;76.10;;;;;;5006101;28;20484;-80
2023/10/17 00:37:30;;;;;;;0.77;0.63;;;11.80;76.20;;;;;;5007177;28;20038;-80
2023/10/17 00:39:59;;;;;;;1.23;0.52;;;11.80;76.60;;;;;;5006669;28;20516;-81
2023/10/17 00:42:29;;;;;;;1.27;0.70;;;11.80;76.40;;;;;;5007678;28;20026;-81
2023/10/17 00:44:55;;;;;;;1.77;0.70;;;11.80;76.10;;;;;;5007990;28;20056;-80
2023/10/17 00:47:22;;;;;;;1.15;0.80;;;11.80;76.20;;;;;;5005629;28;20034;-81
2023/10/17 00:49:51;;;;;;;1.13;0.70;;;11.80;75.70;;;;;;5007376;28;20176;-81
2023/10/17 00:52:32;;;;;;;1.70;0.90;;;11.80;76.60;;;;;;4989870;28;20030;-81
2023/10/17 00:54:59;;;;;;;1.13;0.65;;;11.80;76.10;;;;;;5022342;28;20038;-81
2023/10/17 00:57:29;;;;;;;1.63;0.70;;;11.80;76.20;;;;;;5007118;28;20057;-83
2023/10/17 00:59:56;;;;;;;1.85;0.60;;;11.80;76.20;;;;;;5027623;28;20030;-84
2023/10/17 01:02:24;;;;;;;1.25;0.70;;;11.80;75.80;;;;;;4993650;28;20046;-84
2023/10/17 01:04:51;;;;;;;1.45;0.63;;;11.80;76.20;;;;;;4992877;28;20076;-85
2023/10/17 01:07:26;;;;;;;1.88;1.02;;;11.80;75.30;;;;;;5009327;28;20042;-85
2023/10/17 01:09:55;;;;;;;1.85;1.00;;;11.80;75.00;;;;;;5011100;28;20046;-84
2023/10/17 01:12:27;;;;;;;1.48;0.75;;;11.70;74.90;;;;;;5004534;28;20116;-85
2023/10/17 01:14:54;;;;;;;3.03;1.02;;;11.80;74.60;;;;;;5010660;28;20044;-83
2023/10/17 01:17:23;;;;;;;0.80;0.60;;;11.80;74.60;;;;;;5009839;28;20087;-82
2023/10/17 01:19:53;;;;;;;1.40;0.63;;;11.80;75.00;;;;;;4993075;28;20042;-84
2023/10/17 01:22:20;;;;;;;1.77;0.70;;;11.80;74.40;;;;;;5008727;28;20103;-83
2023/10/17 01:24:47;;;;;;;1.65;0.55;;;11.70;74.60;;;;;;5010772;28;20145;-83
2023/10/17 01:27:13;;;;;;;1.88;0.65;;;11.70;74.50;;;;;;4991324;28;20168;-83
2023/10/17 01:29:43;;;;;;;1.70;0.70;;;11.70;74.60;;;;;;5012696;28;20137;-84
2023/10/17 01:32:10;;;;;;;0.82;0.60;;;11.70;74.60;;;;;;4991319;28;20520;-82
2023/10/17 01:34:37;;;;;;;1.75;0.85;;;11.70;74.40;;;;;;4992360;28;20033;-84
2023/10/17 01:37:07;;;;;;;5.25;1.17;;;11.70;74.10;;;;;;4991900;28;20099;-81
2023/10/17 01:39:34;;;;;;;1.85;0.70;;;11.70;73.70;;;;;;5009704;28;20057;-81
2023/10/17 01:42:00;;;;;;;2.22;0.82;;;11.60;73.40;;;;;;4993282;28;20473;-84
2023/10/17 01:44:26;;;;;;;1.00;0.55;;;11.60;73.40;;;;;;4976298;28;20052;-80
2023/10/17 01:46:52;;;;;;;1.42;0.90;;;11.60;73.30;;;;;;4992662;28;20517;-81
2023/10/17 01:49:19;;;;;;;2.40;0.85;;;11.60;73.20;;;;;;4992221;28;20068;-80
2023/10/17 01:51:48;;;;;;;2.40;0.80;;;11.60;73.00;;;;;;5008165;28;20049;-81
2023/10/17 01:54:16;;;;;;;1.00;0.70;;;11.60;73.80;;;;;;4992010;28;20049;-80
2023/10/17 01:56:49;;;;;;;2.25;0.90;;;11.60;73.30;;;;;;4992362;28;20405;-80
2023/10/17 01:59:25;;;;;;;1.45;0.82;;;11.60;73.10;;;;;;4972024;28;20080;-80
2023/10/17 02:01:56;;;;;;;1.42;0.88;;;11.50;72.80;;;;;;4975375;28;20492;-82
2023/10/17 02:04:24;;;;;;;2.00;1.17;;;11.50;72.70;;;;;;5009243;28;20509;-81
2023/10/17 02:06:51;;;;;;;1.85;0.93;;;11.50;72.70;;;;;;5008660;28;20038;-81
2023/10/17 02:09:24;;;;;;;2.03;0.98;;;11.50;72.60;;;;;;4992343;28;20030;-81
2023/10/17 02:11:54;;;;;;;4.43;1.13;;;11.50;72.90;;;;;;4991808;28;20037;-82
2023/10/17 02:14:23;;;;;;;2.78;1.35;;;11.50;73.00;;;;;;4991803;28;20092;-83
2023/10/17 02:16:50;;;;;;;3.08;1.30;;;11.40;73.10;;;;;;4975153;28;20044;-81
2023/10/17 02:19:19;;;;;;;3.33;1.35;;;11.40;72.90;;;;;;4990991;28;20034;-83
2023/10/17 02:21:50;;;;;;;1.40;1.00;;;11.40;72.80;;;;;;5008724;28;20033;-81
2023/10/17 02:24:29;;;;;;;3.53;1.23;;;11.40;72.80;;;;;;4991590;28;20116;-84
2023/10/17 02:27:00;;;;;;;2.45;1.13;;;11.40;72.80;;;;;;4991614;28;20041;-81
2023/10/17 02:29:31;;;;;;;3.08;1.30;;;11.40;72.90;;;;;;5023146;28;20068;-79
2023/10/17 02:31:58;;;;;;;5.13;1.50;;;11.30;73.00;;;;;;5006428;28;20441;-81
2023/10/17 02:34:30;;;;;;;3.05;1.55;;;11.40;72.90;;;;;;5007943;28;20512;-81
2023/10/17 02:36:56;;;;;;;2.42;1.23;;;11.30;72.70;;;;;;5006627;28;20088;-84
2023/10/17 02:39:22;;;;;;;5.05;1.67;;;11.30;72.70;;;;;;4991155;28;20456;-83
2023/10/17 02:42:03;;;;;;;2.55;1.55;;;11.30;72.70;;;;;;4991201;28;20488;-82
2023/10/17 02:44:31;;;;;;;2.65;1.48;;;11.30;72.80;;;;;;4990781;28;20034;-83
2023/10/17 02:46:58;;;;;;;3.55;1.55;;;11.20;72.70;;;;;;4974294;28;20129;-81
2023/10/17 02:49:27;;;;;;;1.98;1.30;;;11.30;73.30;;;;;;5006467;28;20038;-82
2023/10/17 02:51:54;;;;;;;3.03;1.50;;;11.20;73.10;;;;;;4990310;28;20049;-80
2023/10/17 02:54:21;;;;;;;1.77;1.17;;;11.20;73.20;;;;;;5006354;28;20034;-80
2023/10/17 02:56:51;;;;;;;4.80;1.50;;;11.20;73.30;;;;;;4974993;28;20030;-81
2023/10/17 02:59:17;;;;;;;1.98;1.25;;;11.20;73.20;;;;;;5022555;28;20034;-77
2023/10/17 03:01:44;;;;;;;3.63;1.40;;;11.20;73.60;;;;;;5006825;28;20104;-85
2023/10/17 03:04:13;;;;;;;2.58;1.30;;;11.20;74.10;;;;;;5002719;28;20038;-80
2023/10/17 03:06:41;;;;;;;6.35;1.40;;;11.20;74.00;;;;;;4988183;28;20030;-81
2023/10/17 03:09:57;;;;;;;2.67;1.77;;;11.20;73.80;;;;;;5006235;28;20084;-83
2023/10/17 03:17:11;;;;;;;3.15;1.33;;;11.20;74.50;;;;;;4989943;28;20523;-85
2023/10/17 03:19:38;;;;;;;1.52;0.90;;;11.20;74.60;;;;;;4989593;28;20684;-83
2023/10/17 03:24:51;;;;;;;2.10;1.33;;;11.20;74.40;;;;;;5005426;28;20038;-84
2023/10/17 03:27:26;;;;;;;1.67;1.13;;;11.20;73.90;;;;;;4985089;28;20034;-79
2023/10/17 03:29:52;;;;;;;3.80;1.30;;;11.20;73.70;;;;;;5022632;28;20045;-79
2023/10/17 03:32:21;;;;;;;1.65;1.27;;;11.10;73.50;;;;;;5006767;28;20405;-79
2023/10/17 03:34:56;;;;;;;2.40;0.95;;;11.10;73.20;;;;;;4989328;28;20428;-86
2023/10/17 03:39:52;;;;;;;2.25;1.10;;;11.10;73.30;;;;;;4989020;28;20057;-79
2023/10/17 03:45:13;;;;;;;2.10;1.10;;;11.00;73.10;;;;;;4989144;28;20038;-79
2023/10/17 03:47:47;;;;;;;2.78;1.00;;;11.00;73.10;;;;;;5006674;28;20038;-78
2023/10/17 03:50:31;;;;;;;3.67;1.27;;;11.00;73.10;;;;;;5006002;28;20416;-81
2023/10/17 03:53:14;;;;;;;2.40;1.02;;;11.00;73.10;;;;;;4973001;28;20033;-79
2023/10/17 03:55:42;;;;;;;1.73;1.27;;;11.00;73.10;;;;;;4988540;28;20053;-79
2023/10/17 03:58:25;;;;;;;2.05;1.25;;;11.00;72.90;;;;;;4988932;28;20038;-81
2023/10/17 04:00:53;;;;;;;1.67;1.00;;;10.90;72.90;;;;;;5005908;28;20072;-80
2023/10/17 04:03:23;;;;;;;2.38;1.20;;;10.90;72.90;;;;;;4988695;28;20029;-81
2023/10/17 04:05:51;;;;;;;1.58;1.02;;;10.90;73.00;;;;;;4987424;28;20465;-83
2023/10/17 04:08:26;;;;;;;3.10;1.38;;;10.90;73.00;;;;;;5005841;28;20034;-77
2023/10/17 04:11:37;;;;;;;2.22;1.42;;;10.90;73.00;;;;;;4988227;28;20042;-77
2023/10/17 04:13:38;;;;;;;2.38;1.35;;;10.90;73.00;;;;;;4978227;28;20108;-78
2023/10/17 04:16:09;;;;;;;2.47;1.35;;;10.90;73.20;;;;;;5005492;28;20133;-79
2023/10/17 04:18:39;;;;;;;2.20;1.17;;;10.90;73.10;;;;;;4989129;28;20109;-78
2023/10/17 04:23:53;;;;;;;2.00;1.27;;;10.80;73.10;;;;;;5006442;28;20049;-78
2023/10/17 04:26:19;;;;;;;5.15;1.52;;;10.80;73.10;;;;;;5021108;28;20046;-77
2023/10/17 04:28:52;;;;;;;2.70;1.42;;;10.80;73.30;;;;;;5005935;28;20131;-79
2023/10/17 04:31:28;;;;;;;2.88;1.30;;;10.80;73.30;;;;;;5005919;28;20048;-77
2023/10/17 04:34:06;;;;;;;3.28;1.20;;;10.80;73.30;;;;;;5008477;28;20034;-74
2023/10/17 04:36:37;;;;;;;1.73;1.10;;;10.80;73.30;;;;;;5006713;28;20453;-74
2023/10/17 04:39:34;;;;;;;2.28;1.45;;;10.80;73.50;;;;;;5010138;28;20116;-73
2023/10/17 04:44:40;;;;;;;3.72;1.42;;;10.90;82.10;;;;;;5009407;28;20084;-74
2023/10/17 04:49:50;;;;;;;3.53;1.20;;;10.90;78.20;;;;;;5008351;28;20439;-75
2023/10/17 04:52:29;;;;;;;3.33;1.27;;;10.90;76.80;;;;;;4991910;28;20030;-75
2023/10/17 04:55:04;;;;;;;1.65;1.10;;;10.90;75.90;;;;;;5009591;28;20030;-74
2023/10/17 05:07:06;;;;;;;1.92;1.00;;;10.80;75.00;;;;;;5007715;28;20029;-76
2023/10/17 06:17:42;;;;;;;1.65;1.10;;;11.40;76.10;;;;;;4967136;28;20450;-77
2023/10/17 06:20:12;;;;;;;2.70;0.93;;;11.40;76.90;;;;;;4966421;28;20126;-77
2023/10/17 06:30:48;;;;;;;1.55;0.80;;;11.50;75.20;;;;;;4966323;28;20046;-76
2023/10/17 06:33:17;;;;;;;1.92;0.68;;;11.50;74.70;;;;;;4966555;28;20047;-77
2023/10/17 06:35:44;;;;;;;1.35;0.70;;;11.50;74.30;;;;;;4966539;28;21554;-77
2023/10/17 06:38:15;;;;;;;0.77;0.77;;;11.50;74.00;;;;;;4966013;28;20043;-78
2023/10/17 06:40:45;;;;;;;1.60;1.13;;;11.50;73.80;;;;;;4993653;28;20128;-77
2023/10/17 06:43:27;;;;;;;1.58;0.80;;;11.50;74.10;;;;;;4990063;28;20505;-93
2023/10/17 06:45:57;;;;;;;2.47;1.00;;;11.60;74.00;;;;;;5025332;28;20057;-90
2023/10/17 06:48:31;;;;;;;1.10;0.95;;;11.60;73.90;;;;;;4992549;28;20038;-90
2023/10/17 06:53:47;;;;;;;2.25;1.33;;;11.60;73.30;;;;;;4960013;28;20034;-78
2023/10/17 06:56:14;;;;;;;3.95;1.60;;;11.70;73.20;;;;;;4990735;28;20033;-77
2023/10/17 06:58:40;;;;;;;4.25;1.88;;;11.70;72.80;;;;;;4976219;28;20037;-77
2023/10/17 07:01:19;;;;;;;2.45;1.65;;;11.70;73.00;;;;;;5005932;28;20030;-76
2023/10/17 07:03:45;;;;;;;3.35;1.40;;;11.70;73.20;;;;;;5006526;28;20122;-77
2023/10/17 07:06:11;;;;;;;3.30;1.33;;;11.70;73.00;;;;;;5006451;28;20444;-77
2023/10/17 07:08:38;;;;;;;2.00;1.10;;;11.70;73.20;;;;;;4989069;28;20026;-78
2023/10/17 07:11:10;;;;;;;1.40;0.95;;;11.70;73.50;;;;;;4988885;28;20425;-79
2023/10/17 07:16:48;;;;;;;2.17;1.42;;;11.80;73.70;;;;;;5006988;28;20056;-79
2023/10/17 07:24:33;;;;;;;1.20;0.85;;;11.80;73.70;;;;;;5005689;28;20044;-79
2023/10/17 07:27:04;;;;;;;2.10;0.82;;;11.80;73.60;;;;;;4970275;28;20412;-78
2023/10/17 07:29:33;;;;;;;2.63;0.90;;;11.80;73.90;;;;;;4987319;28;20034;-79
2023/10/17 07:32:18;;;;;;;1.77;1.00;;;11.90;73.10;;;;;;4989108;28;20038;-79
2023/10/17 07:34:44;;;;;;;2.08;0.93;;;11.80;73.00;;;;;;4989677;28;20054;-79
2023/10/17 07:40:04;;;;;;;4.63;1.15;;;11.80;72.50;;;;;;5006611;28;20500;-79
2023/10/17 07:42:40;;;;;;;4.40;1.05;;;11.90;72.90;;;;;;5005696;28;20549;-79
2023/10/17 07:45:14;;;;;;;1.17;0.60;;;11.90;73.20;;;;;;4989235;28;20025;-78
2023/10/17 07:47:51;;;;;;;2.15;0.75;;;11.90;73.70;;;;;;5021799;28;20049;-79
2023/10/17 07:50:17;;;;;;;1.40;0.82;;;11.90;73.70;;;;;;4988578;28;20485;-78
2023/10/17 07:52:44;;;;;;;0.93;0.63;;;11.90;74.10;;;;;;4957579;28;20044;-78
2023/10/17 07:58:06;;;;;;;2.42;0.63;;;11.90;73.20;;;;;;5006260;28;20030;-80
2023/10/17 08:00:36;;;;;;;1.75;0.70;;;11.90;72.90;;;;;;5005213;28;20029;-79
2023/10/17 08:03:18;;;;;;;1.25;0.82;;;11.90;72.70;;;;;;4989378;28;20033;-79
2023/10/17 08:05:45;;;;;;;1.00;0.60;;;11.90;72.40;;;;;;5006944;28;20049;-79
2023/10/17 08:08:14;;;;;;;2.20;0.73;;;11.90;72.60;;;;;;4990299;28;20076;-79
2023/10/17 08:10:45;;;;;;;1.63;0.70;;;11.90;72.40;;;;;;5004118;28;20389;-79
2023/10/17 08:13:13;;;;;;;2.08;0.65;;;11.90;72.50;;;;;;5009298;28;20036;-79
2023/10/17 08:15:46;;;;;;;1.63;0.60;;;11.90;72.20;;;;;;4993131;28;20140;-78
2023/10/17 08:18:15;;;;;;;0.95;0.57;;;11.90;71.90;;;;;;5009862;28;20030;-76
2023/10/17 08:20:47;;;;;;;1.35;0.80;;;11.90;71.70;;;;;;4993719;28;20033;-79
2023/10/17 08:23:17;;;;;;;1.58;0.77;;;11.90;72.00;;;;;;4992622;28;20060;-79
2023/10/17 08:25:56;;;;;;;0.93;0.60;;;11.90;72.80;;;;;;5009941;28;20037;-79
2023/10/17 08:31:24;;;;;;;1.27;0.60;;;11.90;72.20;;;;;;4946618;28;20514;-79
2023/10/17 08:34:04;;;;;;;0.73;0.47;;;11.90;71.80;;;;;;4957782;28;20406;-75
2023/10/17 08:37:07;;;;;;;1.00;0.50;;;11.80;72.10;;;;;;4976349;28;20088;-75
2023/10/17 08:42:14;;;;;;;1.20;0.50;;;11.90;72.30;;;;;;4977967;28;20490;-75
2023/10/17 08:44:46;;;;;;;1.33;0.47;;;11.90;72.70;;;;;;4951911;28;20045;-76
2023/10/17 08:47:18;;;;;;;0.70;0.55;;;11.90;71.80;;;;;;4975015;28;20031;-76
2023/10/17 08:49:46;;;;;;;2.10;0.60;;;11.80;71.40;;;;;;4977243;28;20038;-75
2023/10/17 08:52:26;;;;;;;1.95;0.50;;;11.80;71.60;;;;;;4976798;28;20125;-76
2023/10/17 08:54:55;;;;;;;1.02;0.60;;;11.80;71.40;;;;;;4960334;28;20469;-76
2023/10/17 08:57:22;;;;;;;1.20;0.65;;;11.80;71.80;;;;;;4976402;28;20525;-76
2023/10/17 09:04:49;;;;;;;1.05;0.52;;;11.80;71.10;;;;;;4976889;28;20045;-75
2023/10/17 09:07:31;;;;;;;0.40;0.30;;;11.80;70.50;;;;;;4980411;28;20081;-76
2023/10/17 09:10:04;;;;;;;1.00;0.50;;;11.80;70.20;;;;;;5023668;28;20058;-76
2023/10/17 09:12:36;;;;;;;1.75;0.77;;;11.80;70.50;;;;;;4958953;28;20046;-76
2023/10/17 09:15:05;;;;;;;1.58;0.68;;;11.80;70.40;;;;;;5009783;28;20030;-76
2023/10/17 09:17:31;;;;;;;1.52;0.75;;;11.80;70.70;;;;;;5008480;28;20130;-76
2023/10/17 09:20:05;;;;;;;1.20;0.80;;;11.80;70.40;;;;;;5007812;28;20026;-75
2023/10/17 09:22:32;;;;;;;3.88;1.17;;;11.80;70.00;;;;;;5008226;28;20033;-75
2023/10/17 09:24:59;;;;;;;1.70;1.00;;;11.80;70.30;;;;;;5008540;28;20057;-75
2023/10/17 09:27:31;;;;;;;1.85;0.90;;;11.80;70.50;;;;;;5005617;28;20034;-75
2023/10/17 09:30:00;;;;;;;1.35;1.00;;;11.80;69.90;;;;;;5007961;28;20330;-76
2023/10/17 09:32:37;;;;;;;0.68;0.65;;;11.80;69.60;;;;;;5007501;28;20132;-75
2023/10/17 09:35:11;;;;;;;2.92;0.73;;;11.90;69.80;;;;;;5008282;28;20038;-75
2023/10/17 09:37:41;;;;;;;1.65;0.95;;;11.80;69.80;;;;;;5008134;28;20164;-76
2023/10/17 09:40:13;;;;;;;1.20;0.82;;;11.80;69.50;;;;;;5008319;28;20045;-76
2023/10/17 09:42:44;;;;;;;1.70;0.90;;;11.80;69.40;;;;;;5007919;28;20149;-76
2023/10/17 09:45:12;;;;;;;1.35;0.70;;;11.80;69.00;;;;;;4991124;28;20771;-76
2023/10/17 09:47:46;;;;;;;0.85;0.50;;;11.80;69.20;;;;;;5008493;28;20073;-76
2023/10/17 09:50:17;;;;;;;1.95;0.60;;;11.80;68.90;;;;;;5008253;28;20545;-75
2023/10/17 09:52:48;;;;;;;0.80;0.68;;;11.80;69.20;;;;;;4990910;28;20436;-76
2023/10/17 09:55:17;;;;;;;1.42;0.77;;;11.80;69.40;;;;;;4991525;28;20026;-76
2023/10/17 09:57:54;;;;;;;1.08;0.70;;;11.80;69.30;;;;;;5006152;28;20075;-76
2023/10/17 10:00:40;;;;;;;0.77;0.60;;;11.80;69.20;;;;;;4990361;28;20080;-76
2023/10/17 10:03:08;;;;;;;1.02;0.60;;;11.80;69.60;;;;;;5007906;28;20092;-75
2023/10/17 10:05:34;;;;;;;1.30;0.50;;;11.80;70.90;;;;;;5006746;28;20046;-76
2023/10/17 10:08:04;;;;;;;1.50;0.75;;;11.80;70.90;;;;;;5007015;28;20065;-76
2023/10/17 10:10:43;;;;;;;1.23;0.60;;;11.90;70.70;;;;;;5008206;28;20049;-76
2023/10/17 10:13:13;;;;;;;1.85;0.77;;;11.90;70.90;;;;;;5007195;28;20041;-75
2023/10/17 10:15:50;;;;;;;2.83;0.70;;;11.90;70.30;;;;;;5023367;28;20034;-75
2023/10/17 10:18:37;;;;;;;1.58;0.47;;;11.90;69.80;;;;;;5006945;28;20507;-75
2023/10/17 10:21:03;;;;;;;2.25;0.77;;;11.80;69.60;;;;;;4990187;28;20121;-75
2023/10/17 10:23:36;;;;;;;2.10;0.90;;;11.80;69.10;;;;;;4989673;28;20042;-75
2023/10/17 10:26:11;;;;;;;1.08;0.90;;;11.80;68.80;;;;;;5007021;28;20038;-75
2023/10/17 10:28:43;;;;;;;0.93;0.60;;;11.80;68.80;;;;;;5005924;28;20083;-75
2023/10/17 10:31:22;;;;;;;1.70;1.10;;;11.80;68.60;;;;;;5004738;28;20072;-75
2023/10/17 10:33:53;;;;;;;2.38;0.65;;;11.80;68.80;;;;;;5006981;28;20038;-75
2023/10/17 10:36:23;;;;;;;1.83;0.60;;;11.80;68.60;;;;;;4990031;28;20042;-75
2023/10/17 10:38:49;;;;;;;1.30;0.55;;;11.70;68.30;;;;;;5008103;28;20485;-75
2023/10/17 10:41:17;;;;;;;1.25;0.60;;;11.80;68.60;;;;;;5007702;28;20117;-75
2023/10/17 10:43:45;;;;;;;1.13;0.50;;;11.70;68.30;;;;;;5007376;28;20501;-76
2023/10/17 10:46:11;;;;;;;2.00;0.60;;;11.70;68.50;;;;;;5006915;28;20034;-75
2023/10/17 10:48:46;;;;;;;1.15;0.45;;;11.70;68.50;;;;;;5006984;28;20042;-75
2023/10/17 10:51:18;;;;;;;1.77;0.70;;;11.70;68.10;;;;;;5005898;28;20037;-76
2023/10/17 10:53:46;;;;;;;1.02;0.82;;;11.70;68.00;;;;;;5007244;28;20092;-75
2023/10/17 10:56:13;;;;;;;0.95;0.65;;;11.70;67.90;;;;;;4989646;28;20164;-75
2023/10/17 10:58:47;;;;;;;1.15;0.47;;;11.70;67.90;;;;;;5005690;28;20109;-75
2023/10/17 11:01:14;;;;;;;1.75;0.65;;;11.70;68.00;;;;;;4988831;28;20034;-75
2023/10/17 11:03:42;;;;;;;1.23;0.43;;;11.70;68.30;;;;;;4989485;28;20034;-77
2023/10/17 11:06:08;;;;;;;0.63;0.63;;;11.60;68.10;;;;;;4989789;28;20033;-75
2023/10/17 11:08:35;;;;;;;0.90;0.60;;;11.60;68.10;;;;;;5007109;28;20124;-75
2023/10/17 11:11:03;;;;;;;0.75;0.50;;;11.60;68.20;;;;;;5006041;28;20044;-75
2023/10/17 11:13:45;;;;;;;1.30;0.70;;;11.60;68.40;;;;;;5006672;28;20416;-75
2023/10/17 11:16:16;;;;;;;2.47;0.90;;;11.60;68.40;;;;;;5005757;28;20064;-74
2023/10/17 11:18:45;;;;;;;1.30;0.50;;;11.60;68.60;;;;;;5007103;28;20432;-75
2023/10/17 11:21:12;;;;;;;1.65;0.70;;;11.60;68.50;;;;;;5006775;28;20033;-74
2023/10/17 11:23:47;;;;;;;2.70;0.90;;;11.60;68.60;;;;;;5006510;28;20520;-75
2023/10/17 11:26:14;;;;;;;1.40;0.70;;;11.60;68.70;;;;;;5006585;28;20042;-75
2023/10/17 11:28:47;;;;;;;1.35;0.60;;;11.50;68.60;;;;;;5006675;28;20044;-74
2023/10/17 11:31:24;;;;;;;1.45;0.80;;;11.60;68.80;;;;;;4988900;28;20088;-75
2023/10/17 11:33:54;;;;;;;1.25;0.65;;;11.50;68.60;;;;;;5006730;28;20112;-76
2023/10/17 11:36:21;;;;;;;2.38;0.77;;;11.50;68.70;;;;;;5004548;28;20529;-76
2023/10/17 11:38:57;;;;;;;0.98;0.63;;;11.50;68.80;;;;;;4972860;28;20037;-74
2023/10/17 11:41:38;;;;;;;1.35;0.60;;;11.50;69.00;;;;;;4988861;28;20033;-74
2023/10/17 11:44:04;;;;;;;1.63;0.55;;;11.60;69.10;;;;;;4984387;28;20624;-73
2023/10/17 11:46:31;;;;;;;2.15;0.60;;;11.60;69.30;;;;;;4972568;28;20501;-75
2023/10/17 11:49:34;;;;;;;1.00;0.68;;;11.60;69.50;;;;;;4988412;28;20048;-74
2023/10/17 11:52:02;;;;;;;2.30;0.85;;;11.50;69.50;;;;;;5006256;28;20585;-75
2023/10/17 11:54:29;;;;;;;1.67;1.00;;;11.60;69.80;;;;;;5004183;28;20038;-75
2023/10/17 11:57:07;;;;;;;4.03;0.70;;;11.50;70.00;;;;;;5021188;28;20076;-75
2023/10/17 11:59:33;;;;;;;1.17;0.70;;;11.50;70.40;;;;;;5005925;28;20424;-76
2023/10/17 12:02:03;;;;;;;1.98;0.70;;;11.60;70.70;;;;;;4988690;28;20066;-75
2023/10/17 12:04:29;;;;;;;1.23;0.60;;;11.50;70.80;;;;;;5003968;28;20373;-75
2023/10/17 12:06:55;;;;;;;2.17;0.90;;;11.50;70.90;;;;;;5003676;28;20045;-75
2023/10/17 12:11:48;;;;;;;1.33;0.60;;;11.50;71.20;;;;;;4991191;28;20812;-75
2023/10/17 12:14:20;;;;;;;1.63;0.68;;;11.50;71.30;;;;;;5007824;28;20137;-76
2023/10/17 12:16:48;;;;;;;1.20;0.52;;;11.50;73.00;;;;;;4989217;28;20537;-75
2023/10/17 12:19:17;;;;;;;1.48;0.50;;;11.50;72.90;;;;;;5009089;28;20040;-75
2023/10/17 12:21:47;;;;;;;1.20;0.68;;;11.50;72.50;;;;;;5007957;28;20058;-74
2023/10/17 12:24:24;;;;;;;2.08;0.60;;;11.50;72.50;;;;;;4990255;28;20041;-74
2023/10/17 12:26:53;;;;;;;1.52;0.80;;;11.50;72.40;;;;;;5009134;28;20231;-74
2023/10/17 12:29:19;;;;;;;0.98;0.50;;;11.50;72.40;;;;;;5008248;28;20037;-74
2023/10/17 12:31:46;;;;;;;0.77;0.50;;;11.50;72.80;;;;;;5005087;28;20069;-74
2023/10/17 12:34:15;;;;;;;1.30;0.75;;;11.50;72.90;;;;;;5004379;28;20512;-74
2023/10/17 12:36:46;;;;;;;0.73;0.63;;;11.50;72.80;;;;;;5004065;28;20041;-74
2023/10/17 12:39:16;;;;;;;3.33;0.90;;;11.50;72.90;;;;;;4972108;28;20034;-75
2023/10/17 12:41:46;;;;;;;2.88;0.52;;;11.50;73.00;;;;;;5006293;28;20073;-74
2023/10/17 12:44:13;;;;;;;1.05;0.60;;;11.50;72.80;;;;;;5006169;28;20068;-75
2023/10/17 12:46:39;;;;;;;1.77;0.57;;;11.50;73.00;;;;;;4998608;28;20026;-75
2023/10/17 12:49:06;;;;;;;1.52;0.70;;;11.50;73.40;;;;;;5004406;28;20034;-75
2023/10/17 12:51:33;;;;;;;2.03;0.90;;;11.50;73.30;;;;;;5004218;28;20049;-76
2023/10/17 12:53:59;;;;;;;1.17;0.50;;;11.60;73.50;;;;;;5007751;28;20030;-75
2023/10/17 12:56:25;;;;;;;1.27;0.43;;;11.50;73.60;;;;;;4991627;28;20042;-76
2023/10/17 12:58:51;;;;;;;2.13;0.50;;;11.50;73.50;;;;;;5009324;28;20041;-76
2023/10/17 13:01:17;;;;;;;1.30;0.50;;;11.50;73.50;;;;;;5009031;28;20546;-75
2023/10/17 13:03:43;;;;;;;0.85;0.50;;;11.50;73.40;;;;;;5009110;28;20137;-75
2023/10/17 13:06:09;;;;;;;0.52;0.45;;;11.50;73.50;;;;;;5008046;28;20034;-76
2023/10/17 13:08:36;;;;;;;1.27;0.50;;;11.50;73.50;;;;;;5009597;28;20427;-76
2023/10/17 13:11:02;;;;;;;1.08;0.50;;;11.50;73.50;;;;;;5009284;28;20041;-75
2023/10/17 13:13:32;;;;;;;1.90;0.63;;;11.50;73.60;;;;;;5008656;28;20115;-75
2023/10/17 13:15:59;;;;;;;0.65;0.43;;;11.40;73.60;;;;;;5008565;28;20117;-75
2023/10/17 13:18:28;;;;;;;1.58;0.40;;;11.40;73.60;;;;;;5007424;28;20046;-74
2023/10/17 13:21:02;;;;;;;1.02;0.43;;;11.50;73.80;;;;;;4975380;28;20034;-75
2023/10/17 13:23:28;;;;;;;1.67;0.57;;;11.40;73.80;;;;;;5023796;28;20859;-75
2023/10/17 13:25:54;;;;;;;2.28;0.60;;;11.40;73.80;;;;;;5007254;28;20424;-76
2023/10/17 13:28:21;;;;;;;1.23;0.45;;;11.40;73.90;;;;;;4991412;28;20114;-74
2023/10/17 13:30:47;;;;;;;0.68;0.50;;;11.40;73.70;;;;;;4974845;28;20095;-76
2023/10/17 13:33:13;;;;;;;0.50;0.43;;;11.40;73.90;;;;;;4974948;28;20034;-75
2023/10/17 13:35:40;;;;;;;0.55;0.38;;;11.40;73.90;;;;;;4991466;28;20042;-75
2023/10/17 13:38:06;;;;;;;1.63;0.88;;;11.40;74.20;;;;;;5007924;28;20042;-76
2023/10/17 13:40:33;;;;;;;1.00;0.40;;;11.40;74.40;;;;;;5007209;28;20034;-77
2023/10/17 13:43:04;;;;;;;0.85;0.50;;;11.40;74.30;;;;;;5023026;28;20060;-74
2023/10/17 13:45:36;;;;;;;2.63;0.80;;;11.40;74.50;;;;;;4962402;28;20609;-75
2023/10/17 13:48:03;;;;;;;1.90;0.70;;;11.40;74.40;;;;;;5012368;28;20022;-75
2023/10/17 13:50:30;;;;;;;1.08;0.65;;;11.40;74.50;;;;;;5011879;28;20129;-75
2023/10/17 13:53:06;;;;;;;1.15;0.85;;;11.40;74.90;;;;;;5013310;28;20026;-75
2023/10/17 13:55:38;;;;;;;1.23;0.75;;;11.40;75.00;;;;;;5012991;28;20124;-76
2023/10/17 13:58:04;;;;;;;3.10;0.90;;;11.40;74.90;;;;;;4994795;28;20034;-80
2023/10/17 14:00:42;;;;;;;2.10;0.55;;;11.40;74.80;;;;;;4995021;28;20081;-77
2023/10/17 14:03:14;;;;;;;0.65;0.63;;;11.40;74.80;;;;;;4978935;28;20072;-75
2023/10/17 14:05:42;;;;;;;0.57;0.40;;;11.40;76.40;;;;;;5011968;28;20516;-76
2023/10/17 14:08:09;;;;;;;0.68;0.40;;;11.40;76.50;;;;;;4994373;28;20093;-74
2023/10/17 14:10:37;;;;;;;3.47;0.50;;;11.40;76.20;;;;;;5012866;28;20038;-75
2023/10/17 14:13:08;;;;;;;1.25;0.68;;;11.40;76.50;;;;;;5012876;28;20045;-74
2023/10/17 14:15:37;;;;;;;1.67;0.55;;;11.40;76.60;;;;;;5010581;28;20030;-76
2023/10/17 14:18:09;;;;;;;0.85;0.40;;;11.40;76.50;;;;;;5010329;28;20486;-76
2023/10/17 14:20:40;;;;;;;1.80;0.50;;;11.40;75.90;;;;;;5004886;28;20050;-71
2023/10/17 14:23:12;;;;;;;2.60;0.98;;;11.40;75.40;;;;;;4994737;28;20054;-71
2023/10/17 14:28:25;;;;;;;1.55;0.52;;;11.50;80.90;;;;;;5007584;28;20037;-71
2023/10/17 14:30:51;;;;;;;1.08;0.40;;;11.50;79.10;;;;;;5007007;28;20050;-71
2023/10/17 14:33:17;;;;;;;5.30;0.60;;;11.50;77.90;;;;;;5007410;28;20030;-71
2023/10/17 14:35:43;;;;;;;3.47;0.82;;;11.50;77.50;;;;;;5007236;28;20026;-71
2023/10/17 14:38:11;;;;;;;0.95;0.57;;;11.50;77.30;;;;;;5006547;28;20042;-71
2023/10/17 14:40:38;;;;;;;2.58;0.60;;;11.50;76.90;;;;;;4989823;28;20401;-72
2023/10/17 14:43:08;;;;;;;1.17;0.85;;;11.50;76.90;;;;;;5007006;28;20041;-72
2023/10/17 14:45:41;;;;;;;1.88;0.43;;;11.40;76.60;;;;;;5006339;28;20076;-72
2023/10/17 14:48:13;;;;;;;2.70;0.73;;;11.40;76.50;;;;;;5006939;28;20034;-73
2023/10/17 14:50:39;;;;;;;2.50;0.68;;;11.40;76.40;;;;;;5006859;28;20041;-72
2023/10/17 14:53:06;;;;;;;1.20;0.50;;;11.40;76.10;;;;;;4988680;28;20030;-70
2023/10/17 14:55:33;;;;;;;1.73;0.47;;;11.40;75.80;;;;;;5005413;28;20428;-72
2023/10/17 14:58:01;;;;;;;1.58;0.43;;;11.40;75.50;;;;;;5007056;28;20030;-72
2023/10/17 15:00:28;;;;;;;0.60;0.50;;;11.40;75.30;;;;;;4988919;28;20560;-73
2023/10/17 15:02:55;;;;;;;1.00;0.60;;;11.40;75.80;;;;;;5006426;28;20125;-72
2023/10/17 15:05:21;;;;;;;1.23;0.40;;;11.40;76.70;;;;;;4988776;28;20113;-72
2023/10/17 15:07:47;;;;;;;6.25;0.80;;;11.40;77.10;;;;;;4985595;28;20034;-72
2023/10/17 15:10:13;;;;;;;1.20;0.45;;;11.40;79.50;;;;;;4989239;28;20128;-77
2023/10/17 15:12:47;;;;;;;2.03;0.75;;;11.50;79.60;;;;;;4972376;28;20050;-73
2023/10/17 15:15:14;;;;;;;1.45;0.70;;;11.50;80.00;;;;;;5001889;28;20120;-73
2023/10/17 15:17:44;;;;;;;1.00;0.52;;;11.50;82.70;;;;;;5005905;28;20120;-72
2023/10/17 15:20:11;;;;;;;2.33;0.60;;;11.50;82.30;;;;;;5006838;28;20033;-72
2023/10/17 15:22:42;;;;;;;3.17;0.50;;;11.50;81.70;;;;;;5021078;28;20049;-71
2023/10/17 15:25:15;;;;;;;2.20;0.70;;;11.50;81.50;;;;;;5006227;28;20030;-71
2023/10/17 15:27:42;;;;;;;21.25;1.23;;;11.50;81.20;;;;;;4988390;28;20049;-72